sensor_id;sensor_type;location;lat;lon;timestamp;P1;durP1;ratioP1;P2;durP2;ratioP2
18838;SDS011;9548;56.920;14.804;2022-07-25T00:00:01;5.80;;;3.50;;
18838;SDS011;9548;56.920;14.804;2022-07-25T00:02:28;4.22;;;3.60;;
18838;SDS011;9548;56.920;14.804;2022-07-25T00:04:55;6.57;;;3.60;;
18838;SDS011;9548;56.920;14.804;2022-07-25T00:07:22;7.38;;;3.97;;
18838;SDS011;9548;56.920;14.804;2022-07-25T00:09:49;5.75;;;3.60;;
18838;SDS011;9548;56.920;14.804;2022-07-25T00:12:16;9.32;;;3.95;;
18838;SDS011;9548;56.920;14.804;2022-07-25T00:14:44;5.25;;;4.03;;
18838;SDS011;9548;56.920;14.804;2022-07-25T00:17:12;7.50;;;4.05;;
18838;SDS011;9548;56.920;14.804;2022-07-25T00:19:39;4.97;;;4.03;;
18838;SDS011;9548;56.920;14.804;2022-07-25T00:22:06;5.60;;;3.72;;
18838;SDS011;9548;56.920;14.804;2022-07-25T00:24:34;8.02;;;3.75;;
18838;SDS011;9548;56.920;14.804;2022-07-25T00:27:00;5.22;;;4.10;;
18838;SDS011;9548;56.920;14.804;2022-07-25T00:29:28;3.72;;;3.30;;
18838;SDS011;9548;56.920;14.804;2022-07-25T00:31:56;5.65;;;3.50;;
18838;SDS011;9548;56.920;14.804;2022-07-25T00:34:23;4.97;;;4.10;;
18838;SDS011;9548;56.920;14.804;2022-07-25T00:36:51;6.18;;;3.90;;
18838;SDS011;9548;56.920;14.804;2022-07-25T00:39:18;6.20;;;3.70;;
18838;SDS011;9548;56.920;14.804;2022-07-25T00:41:45;5.00;;;3.40;;
18838;SDS011;9548;56.920;14.804;2022-07-25T00:44:20;5.00;;;4.00;;
18838;SDS011;9548;56.920;14.804;2022-07-25T00:46:48;4.10;;;3.70;;
18838;SDS011;9548;56.920;14.804;2022-07-25T00:49:16;4.50;;;3.97;;
18838;SDS011;9548;56.920;14.804;2022-07-25T00:51:43;7.20;;;4.43;;
18838;SDS011;9548;56.920;14.804;2022-07-25T00:54:11;8.85;;;4.07;;
18838;SDS011;9548;56.920;14.804;2022-07-25T00:56:39;5.75;;;4.13;;
18838;SDS011;9548;56.920;14.804;2022-07-25T00:59:06;5.32;;;4.72;;
18838;SDS011;9548;56.920;14.804;2022-07-25T01:01:33;5.13;;;4.00;;
18838;SDS011;9548;56.920;14.804;2022-07-25T01:04:01;4.93;;;3.95;;
18838;SDS011;9548;56.920;14.804;2022-07-25T01:06:30;4.70;;;3.80;;
18838;SDS011;9548;56.920;14.804;2022-07-25T01:08:57;6.47;;;3.85;;
18838;SDS011;9548;56.920;14.804;2022-07-25T01:11:24;4.38;;;3.97;;
18838;SDS011;9548;56.920;14.804;2022-07-25T01:13:51;6.15;;;4.05;;
18838;SDS011;9548;56.920;14.804;2022-07-25T01:16:19;5.97;;;3.97;;
18838;SDS011;9548;56.920;14.804;2022-07-25T01:18:46;5.30;;;3.53;;
18838;SDS011;9548;56.920;14.804;2022-07-25T01:21:14;5.10;;;3.75;;
18838;SDS011;9548;56.920;14.804;2022-07-25T01:23:41;4.93;;;3.97;;
18838;SDS011;9548;56.920;14.804;2022-07-25T01:26:08;8.05;;;4.22;;
18838;SDS011;9548;56.920;14.804;2022-07-25T01:28:35;4.95;;;3.92;;
18838;SDS011;9548;56.920;14.804;2022-07-25T01:31:02;7.50;;;4.05;;
18838;SDS011;9548;56.920;14.804;2022-07-25T01:33:30;5.18;;;3.78;;
18838;SDS011;9548;56.920;14.804;2022-07-25T01:35:57;5.68;;;3.88;;
18838;SDS011;9548;56.920;14.804;2022-07-25T01:38:25;7.20;;;3.90;;
18838;SDS011;9548;56.920;14.804;2022-07-25T01:40:52;6.25;;;3.80;;
18838;SDS011;9548;56.920;14.804;2022-07-25T01:43:19;5.13;;;3.97;;
18838;SDS011;9548;56.920;14.804;2022-07-25T01:45:46;7.28;;;3.92;;
18838;SDS011;9548;56.920;14.804;2022-07-25T01:48:13;6.22;;;4.20;;
18838;SDS011;9548;56.920;14.804;2022-07-25T01:50:40;4.93;;;3.90;;
18838;SDS011;9548;56.920;14.804;2022-07-25T01:53:07;4.72;;;4.20;;
18838;SDS011;9548;56.920;14.804;2022-07-25T01:55:36;4.80;;;3.80;;
18838;SDS011;9548;56.920;14.804;2022-07-25T01:58:03;6.15;;;3.95;;
18838;SDS011;9548;56.920;14.804;2022-07-25T02:00:30;6.13;;;3.92;;
18838;SDS011;9548;56.920;14.804;2022-07-25T02:02:57;5.07;;;3.97;;
18838;SDS011;9548;56.920;14.804;2022-07-25T02:05:41;7.00;;;4.38;;
18838;SDS011;9548;56.920;14.804;2022-07-25T02:08:08;5.25;;;4.13;;
18838;SDS011;9548;56.920;14.804;2022-07-25T02:10:36;5.72;;;4.20;;
18838;SDS011;9548;56.920;14.804;2022-07-25T02:13:04;8.75;;;4.38;;
18838;SDS011;9548;56.920;14.804;2022-07-25T02:15:31;5.28;;;4.00;;
18838;SDS011;9548;56.920;14.804;2022-07-25T02:17:58;6.68;;;4.18;;
18838;SDS011;9548;56.920;14.804;2022-07-25T02:20:25;7.68;;;3.85;;
18838;SDS011;9548;56.920;14.804;2022-07-25T02:22:52;6.05;;;3.70;;
18838;SDS011;9548;56.920;14.804;2022-07-25T02:25:19;5.93;;;3.80;;
18838;SDS011;9548;56.920;14.804;2022-07-25T02:27:48;6.35;;;4.00;;
18838;SDS011;9548;56.920;14.804;2022-07-25T02:30:15;8.80;;;3.83;;
18838;SDS011;9548;56.920;14.804;2022-07-25T02:32:42;5.00;;;3.60;;
18838;SDS011;9548;56.920;14.804;2022-07-25T02:35:09;5.03;;;4.05;;
18838;SDS011;9548;56.920;14.804;2022-07-25T02:37:36;7.18;;;3.78;;
18838;SDS011;9548;56.920;14.804;2022-07-25T02:40:03;7.35;;;4.13;;
18838;SDS011;9548;56.920;14.804;2022-07-25T02:42:31;5.60;;;3.78;;
18838;SDS011;9548;56.920;14.804;2022-07-25T02:44:59;3.90;;;3.50;;
18838;SDS011;9548;56.920;14.804;2022-07-25T02:47:26;5.07;;;4.10;;
18838;SDS011;9548;56.920;14.804;2022-07-25T02:49:53;5.63;;;3.50;;
18838;SDS011;9548;56.920;14.804;2022-07-25T02:52:20;5.03;;;3.10;;
18838;SDS011;9548;56.920;14.804;2022-07-25T02:54:48;6.18;;;3.15;;
18838;SDS011;9548;56.920;14.804;2022-07-25T02:57:16;4.18;;;2.83;;
18838;SDS011;9548;56.920;14.804;2022-07-25T02:59:43;3.75;;;3.38;;
18838;SDS011;9548;56.920;14.804;2022-07-25T03:02:11;7.45;;;3.00;;
18838;SDS011;9548;56.920;14.804;2022-07-25T03:04:39;3.70;;;2.83;;
18838;SDS011;9548;56.920;14.804;2022-07-25T03:07:05;4.90;;;3.00;;
18838;SDS011;9548;56.920;14.804;2022-07-25T03:09:33;4.63;;;3.08;;
18838;SDS011;9548;56.920;14.804;2022-07-25T03:12:00;5.65;;;3.05;;
18838;SDS011;9548;56.920;14.804;2022-07-25T03:14:27;2.80;;;2.53;;
18838;SDS011;9548;56.920;14.804;2022-07-25T03:16:54;3.20;;;2.42;;
18838;SDS011;9548;56.920;14.804;2022-07-25T03:19:22;4.65;;;2.33;;
18838;SDS011;9548;56.920;14.804;2022-07-25T03:21:49;4.65;;;2.70;;
18838;SDS011;9548;56.920;14.804;2022-07-25T03:24:16;6.22;;;2.60;;
18838;SDS011;9548;56.920;14.804;2022-07-25T03:26:44;5.05;;;2.35;;
18838;SDS011;9548;56.920;14.804;2022-07-25T03:29:11;4.72;;;2.10;;
18838;SDS011;9548;56.920;14.804;2022-07-25T03:31:38;3.05;;;1.90;;
18838;SDS011;9548;56.920;14.804;2022-07-25T03:34:05;2.80;;;2.22;;
18838;SDS011;9548;56.920;14.804;2022-07-25T03:36:33;6.00;;;2.28;;
18838;SDS011;9548;56.920;14.804;2022-07-25T03:39:00;5.07;;;2.00;;
18838;SDS011;9548;56.920;14.804;2022-07-25T03:41:27;3.00;;;1.90;;
18838;SDS011;9548;56.920;14.804;2022-07-25T03:43:54;4.20;;;1.85;;
18838;SDS011;9548;56.920;14.804;2022-07-25T03:46:21;4.82;;;1.90;;
18838;SDS011;9548;56.920;14.804;2022-07-25T03:48:48;3.00;;;1.92;;
18838;SDS011;9548;56.920;14.804;2022-07-25T03:51:15;3.85;;;2.00;;
18838;SDS011;9548;56.920;14.804;2022-07-25T03:53:44;3.55;;;2.20;;
18838;SDS011;9548;56.920;14.804;2022-07-25T03:56:30;4.68;;;2.22;;
18838;SDS011;9548;56.920;14.804;2022-07-25T03:58:58;4.72;;;1.77;;
18838;SDS011;9548;56.920;14.804;2022-07-25T04:01:25;2.28;;;2.08;;
18838;SDS011;9548;56.920;14.804;2022-07-25T04:03:52;4.28;;;1.90;;
18838;SDS011;9548;56.920;14.804;2022-07-25T04:06:19;2.88;;;1.92;;
18838;SDS011;9548;56.920;14.804;2022-07-25T04:08:48;2.38;;;1.80;;
18838;SDS011;9548;56.920;14.804;2022-07-25T04:11:16;4.18;;;2.10;;
18838;SDS011;9548;56.920;14.804;2022-07-25T04:13:43;2.72;;;1.90;;
18838;SDS011;9548;56.920;14.804;2022-07-25T04:16:10;4.78;;;2.25;;
18838;SDS011;9548;56.920;14.804;2022-07-25T04:18:38;3.60;;;1.95;;
18838;SDS011;9548;56.920;14.804;2022-07-25T04:21:06;4.20;;;2.35;;
18838;SDS011;9548;56.920;14.804;2022-07-25T04:23:34;4.82;;;1.98;;
18838;SDS011;9548;56.920;14.804;2022-07-25T04:26:02;4.82;;;2.22;;
18838;SDS011;9548;56.920;14.804;2022-07-25T04:28:29;6.13;;;2.17;;
18838;SDS011;9548;56.920;14.804;2022-07-25T04:30:57;4.38;;;2.00;;
18838;SDS011;9548;56.920;14.804;2022-07-25T04:33:24;2.83;;;1.75;;
18838;SDS011;9548;56.920;14.804;2022-07-25T04:35:51;5.05;;;2.33;;
18838;SDS011;9548;56.920;14.804;2022-07-25T04:38:18;9.82;;;2.10;;
18838;SDS011;9548;56.920;14.804;2022-07-25T04:40:46;2.50;;;2.00;;
18838;SDS011;9548;56.920;14.804;2022-07-25T04:43:14;2.45;;;2.00;;
18838;SDS011;9548;56.920;14.804;2022-07-25T04:45:41;3.00;;;1.90;;
18838;SDS011;9548;56.920;14.804;2022-07-25T04:48:08;6.18;;;1.98;;
18838;SDS011;9548;56.920;14.804;2022-07-25T04:50:35;2.30;;;2.00;;
18838;SDS011;9548;56.920;14.804;2022-07-25T04:53:03;2.75;;;2.17;;
18838;SDS011;9548;56.920;14.804;2022-07-25T04:55:30;4.18;;;1.75;;
18838;SDS011;9548;56.920;14.804;2022-07-25T04:57:57;4.80;;;2.10;;
18838;SDS011;9548;56.920;14.804;2022-07-25T05:00:26;4.45;;;2.15;;
18838;SDS011;9548;56.920;14.804;2022-07-25T05:02:53;2.70;;;1.88;;
18838;SDS011;9548;56.920;14.804;2022-07-25T05:05:20;2.75;;;2.17;;
18838;SDS011;9548;56.920;14.804;2022-07-25T05:07:47;3.53;;;2.05;;
18838;SDS011;9548;56.920;14.804;2022-07-25T05:10:15;4.05;;;2.30;;
18838;SDS011;9548;56.920;14.804;2022-07-25T05:12:42;3.20;;;2.03;;
18838;SDS011;9548;56.920;14.804;2022-07-25T05:15:10;2.42;;;2.05;;
18838;SDS011;9548;56.920;14.804;2022-07-25T05:17:39;2.10;;;1.88;;
18838;SDS011;9548;56.920;14.804;2022-07-25T05:20:06;4.15;;;1.70;;
18838;SDS011;9548;56.920;14.804;2022-07-25T05:22:34;2.92;;;1.83;;
18838;SDS011;9548;56.920;14.804;2022-07-25T05:25:01;2.67;;;2.05;;
18838;SDS011;9548;56.920;14.804;2022-07-25T05:27:31;3.17;;;2.00;;
18838;SDS011;9548;56.920;14.804;2022-07-25T05:29:58;2.47;;;2.10;;
18838;SDS011;9548;56.920;14.804;2022-07-25T05:32:25;2.95;;;1.98;;
18838;SDS011;9548;56.920;14.804;2022-07-25T05:34:54;2.33;;;1.73;;
18838;SDS011;9548;56.920;14.804;2022-07-25T05:37:21;3.05;;;2.03;;
18838;SDS011;9548;56.920;14.804;2022-07-25T05:39:47;4.43;;;1.90;;
18838;SDS011;9548;56.920;14.804;2022-07-25T05:42:14;3.33;;;2.00;;
18838;SDS011;9548;56.920;14.804;2022-07-25T05:44:42;2.28;;;1.90;;
18838;SDS011;9548;56.920;14.804;2022-07-25T05:47:09;2.13;;;1.77;;
18838;SDS011;9548;56.920;14.804;2022-07-25T05:49:36;3.78;;;2.00;;
18838;SDS011;9548;56.920;14.804;2022-07-25T05:52:05;2.47;;;2.00;;
18838;SDS011;9548;56.920;14.804;2022-07-25T05:54:32;2.75;;;1.90;;
18838;SDS011;9548;56.920;14.804;2022-07-25T05:56:59;4.07;;;2.17;;
18838;SDS011;9548;56.920;14.804;2022-07-25T05:59:26;2.10;;;1.90;;
18838;SDS011;9548;56.920;14.804;2022-07-25T06:01:53;3.25;;;2.08;;
18838;SDS011;9548;56.920;14.804;2022-07-25T06:04:20;2.78;;;2.00;;
18838;SDS011;9548;56.920;14.804;2022-07-25T06:06:47;2.97;;;2.25;;
18838;SDS011;9548;56.920;14.804;2022-07-25T06:09:17;5.25;;;2.00;;
18838;SDS011;9548;56.920;14.804;2022-07-25T06:11:45;4.75;;;2.10;;
18838;SDS011;9548;56.920;14.804;2022-07-25T06:14:12;2.40;;;1.77;;
18838;SDS011;9548;56.920;14.804;2022-07-25T06:16:39;4.07;;;1.80;;
18838;SDS011;9548;56.920;14.804;2022-07-25T06:19:07;3.47;;;1.90;;
18838;SDS011;9548;56.920;14.804;2022-07-25T06:21:34;3.58;;;2.00;;
18838;SDS011;9548;56.920;14.804;2022-07-25T06:24:01;5.57;;;1.67;;
18838;SDS011;9548;56.920;14.804;2022-07-25T06:26:30;4.63;;;1.98;;
18838;SDS011;9548;56.920;14.804;2022-07-25T06:28:57;2.63;;;2.08;;
18838;SDS011;9548;56.920;14.804;2022-07-25T06:31:24;2.58;;;2.20;;
18838;SDS011;9548;56.920;14.804;2022-07-25T06:33:51;4.40;;;1.88;;
18838;SDS011;9548;56.920;14.804;2022-07-25T06:36:18;2.47;;;1.83;;
18838;SDS011;9548;56.920;14.804;2022-07-25T06:38:45;2.60;;;2.08;;
18838;SDS011;9548;56.920;14.804;2022-07-25T06:41:13;3.35;;;1.90;;
18838;SDS011;9548;56.920;14.804;2022-07-25T06:43:42;2.55;;;1.60;;
18838;SDS011;9548;56.920;14.804;2022-07-25T06:46:09;3.25;;;1.90;;
18838;SDS011;9548;56.920;14.804;2022-07-25T06:48:36;7.70;;;2.53;;
18838;SDS011;9548;56.920;14.804;2022-07-25T06:51:03;2.70;;;2.05;;
18838;SDS011;9548;56.920;14.804;2022-07-25T06:53:31;3.08;;;2.05;;
18838;SDS011;9548;56.920;14.804;2022-07-25T06:55:58;2.45;;;2.03;;
18838;SDS011;9548;56.920;14.804;2022-07-25T06:58:25;2.45;;;1.92;;
18838;SDS011;9548;56.920;14.804;2022-07-25T07:00:54;3.70;;;2.00;;
18838;SDS011;9548;56.920;14.804;2022-07-25T07:03:21;2.63;;;2.05;;
18838;SDS011;9548;56.920;14.804;2022-07-25T07:05:48;2.72;;;2.15;;
18838;SDS011;9548;56.920;14.804;2022-07-25T07:08:15;3.45;;;2.25;;
18838;SDS011;9548;56.920;14.804;2022-07-25T07:10:42;5.53;;;2.00;;
18838;SDS011;9548;56.920;14.804;2022-07-25T07:13:10;5.25;;;2.33;;
18838;SDS011;9548;56.920;14.804;2022-07-25T07:15:42;3.13;;;1.95;;
18838;SDS011;9548;56.920;14.804;2022-07-25T07:18:12;3.65;;;2.38;;
18838;SDS011;9548;56.920;14.804;2022-07-25T07:20:39;6.00;;;2.22;;
18838;SDS011;9548;56.920;14.804;2022-07-25T07:23:06;3.88;;;2.15;;
18838;SDS011;9548;56.920;14.804;2022-07-25T07:25:34;3.30;;;2.20;;
18838;SDS011;9548;56.920;14.804;2022-07-25T07:28:01;5.68;;;2.15;;
18838;SDS011;9548;56.920;14.804;2022-07-25T07:30:28;3.55;;;2.30;;
18838;SDS011;9548;56.920;14.804;2022-07-25T07:32:55;3.15;;;1.70;;
18838;SDS011;9548;56.920;14.804;2022-07-25T07:35:24;4.70;;;2.30;;
18838;SDS011;9548;56.920;14.804;2022-07-25T07:37:51;3.08;;;1.83;;
18838;SDS011;9548;56.920;14.804;2022-07-25T07:40:18;5.60;;;2.10;;
18838;SDS011;9548;56.920;14.804;2022-07-25T07:42:46;4.13;;;2.08;;
18838;SDS011;9548;56.920;14.804;2022-07-25T07:45:16;2.80;;;1.88;;
18838;SDS011;9548;56.920;14.804;2022-07-25T07:47:44;2.25;;;2.03;;
18838;SDS011;9548;56.920;14.804;2022-07-25T07:50:13;2.70;;;1.83;;
18838;SDS011;9548;56.920;14.804;2022-07-25T07:52:42;2.10;;;1.90;;
18838;SDS011;9548;56.920;14.804;2022-07-25T07:55:10;4.68;;;1.88;;
18838;SDS011;9548;56.920;14.804;2022-07-25T07:57:55;3.92;;;2.03;;
18838;SDS011;9548;56.920;14.804;2022-07-25T08:00:24;5.25;;;2.10;;
18838;SDS011;9548;56.920;14.804;2022-07-25T08:02:53;5.45;;;2.03;;
18838;SDS011;9548;56.920;14.804;2022-07-25T08:05:20;3.05;;;2.00;;
18838;SDS011;9548;56.920;14.804;2022-07-25T08:07:50;4.03;;;2.17;;
18838;SDS011;9548;56.920;14.804;2022-07-25T08:10:19;7.18;;;2.00;;
18838;SDS011;9548;56.920;14.804;2022-07-25T08:12:46;7.32;;;1.95;;
18838;SDS011;9548;56.920;14.804;2022-07-25T08:15:14;4.00;;;2.30;;
18838;SDS011;9548;56.920;14.804;2022-07-25T08:17:42;3.33;;;2.10;;
18838;SDS011;9548;56.920;14.804;2022-07-25T08:20:10;3.38;;;2.05;;
18838;SDS011;9548;56.920;14.804;2022-07-25T08:22:38;2.45;;;2.25;;
18838;SDS011;9548;56.920;14.804;2022-07-25T08:25:08;3.45;;;2.00;;
18838;SDS011;9548;56.920;14.804;2022-07-25T08:27:38;2.40;;;2.20;;
18838;SDS011;9548;56.920;14.804;2022-07-25T08:30:07;3.08;;;1.85;;
18838;SDS011;9548;56.920;14.804;2022-07-25T08:32:45;2.75;;;2.15;;
18838;SDS011;9548;56.920;14.804;2022-07-25T08:35:13;3.60;;;1.83;;
18838;SDS011;9548;56.920;14.804;2022-07-25T08:37:40;3.85;;;1.88;;
18838;SDS011;9548;56.920;14.804;2022-07-25T08:40:10;1.98;;;1.77;;
18838;SDS011;9548;56.920;14.804;2022-07-25T08:42:38;1.85;;;1.75;;
18838;SDS011;9548;56.920;14.804;2022-07-25T08:45:08;1.90;;;1.70;;
18838;SDS011;9548;56.920;14.804;2022-07-25T08:47:37;3.30;;;2.20;;
18838;SDS011;9548;56.920;14.804;2022-07-25T08:50:06;2.60;;;2.15;;
18838;SDS011;9548;56.920;14.804;2022-07-25T08:52:36;2.38;;;1.90;;
18838;SDS011;9548;56.920;14.804;2022-07-25T08:55:04;3.40;;;2.00;;
18838;SDS011;9548;56.920;14.804;2022-07-25T08:57:34;3.90;;;1.95;;
18838;SDS011;9548;56.920;14.804;2022-07-25T09:00:06;2.38;;;2.10;;
18838;SDS011;9548;56.920;14.804;2022-07-25T09:02:33;4.22;;;2.08;;
18838;SDS011;9548;56.920;14.804;2022-07-25T09:05:00;3.40;;;1.90;;
18838;SDS011;9548;56.920;14.804;2022-07-25T09:07:30;3.88;;;2.08;;
18838;SDS011;9548;56.920;14.804;2022-07-25T09:09:59;7.15;;;1.95;;
18838;SDS011;9548;56.920;14.804;2022-07-25T09:12:39;2.22;;;2.00;;
18838;SDS011;9548;56.920;14.804;2022-07-25T09:15:07;4.32;;;2.10;;
18838;SDS011;9548;56.920;14.804;2022-07-25T09:17:34;2.53;;;2.08;;
18838;SDS011;9548;56.920;14.804;2022-07-25T09:20:02;2.30;;;1.90;;
18838;SDS011;9548;56.920;14.804;2022-07-25T09:22:31;2.60;;;2.10;;
18838;SDS011;9548;56.920;14.804;2022-07-25T09:25:18;3.42;;;2.05;;
18838;SDS011;9548;56.920;14.804;2022-07-25T09:27:47;3.05;;;2.00;;
18838;SDS011;9548;56.920;14.804;2022-07-25T09:30:15;2.25;;;2.05;;
18838;SDS011;9548;56.920;14.804;2022-07-25T09:32:42;2.80;;;1.83;;
18838;SDS011;9548;56.920;14.804;2022-07-25T09:35:09;3.20;;;1.85;;
18838;SDS011;9548;56.920;14.804;2022-07-25T09:37:37;2.90;;;2.00;;
18838;SDS011;9548;56.920;14.804;2022-07-25T09:40:10;3.50;;;1.70;;
18838;SDS011;9548;56.920;14.804;2022-07-25T09:42:38;3.22;;;2.20;;
18838;SDS011;9548;56.920;14.804;2022-07-25T09:45:09;6.35;;;2.20;;
18838;SDS011;9548;56.920;14.804;2022-07-25T09:47:48;3.50;;;2.00;;
18838;SDS011;9548;56.920;14.804;2022-07-25T09:50:17;2.33;;;2.10;;
18838;SDS011;9548;56.920;14.804;2022-07-25T09:52:44;4.05;;;2.00;;
18838;SDS011;9548;56.920;14.804;2022-07-25T09:55:11;2.25;;;1.90;;
18838;SDS011;9548;56.920;14.804;2022-07-25T09:57:40;2.88;;;2.20;;
18838;SDS011;9548;56.920;14.804;2022-07-25T10:00:10;2.08;;;1.88;;
18838;SDS011;9548;56.920;14.804;2022-07-25T10:02:40;2.75;;;2.00;;
18838;SDS011;9548;56.920;14.804;2022-07-25T10:05:15;2.30;;;2.10;;
18838;SDS011;9548;56.920;14.804;2022-07-25T10:07:49;2.38;;;1.90;;
18838;SDS011;9548;56.920;14.804;2022-07-25T10:10:22;1.95;;;1.75;;
18838;SDS011;9548;56.920;14.804;2022-07-25T10:12:58;4.53;;;1.90;;
18838;SDS011;9548;56.920;14.804;2022-07-25T10:15:39;4.57;;;1.88;;
18838;SDS011;9548;56.920;14.804;2022-07-25T10:18:07;4.15;;;1.98;;
18838;SDS011;9548;56.920;14.804;2022-07-25T10:20:35;3.28;;;2.00;;
18838;SDS011;9548;56.920;14.804;2022-07-25T10:23:03;2.13;;;1.92;;
18838;SDS011;9548;56.920;14.804;2022-07-25T10:25:41;3.08;;;1.80;;
18838;SDS011;9548;56.920;14.804;2022-07-25T10:28:09;2.58;;;2.20;;
18838;SDS011;9548;56.920;14.804;2022-07-25T10:30:38;4.35;;;2.10;;
18838;SDS011;9548;56.920;14.804;2022-07-25T10:33:10;2.22;;;2.03;;
18838;SDS011;9548;56.920;14.804;2022-07-25T10:35:39;3.65;;;1.83;;
18838;SDS011;9548;56.920;14.804;2022-07-25T10:38:06;4.72;;;1.88;;
18838;SDS011;9548;56.920;14.804;2022-07-25T10:40:35;6.03;;;2.08;;
18838;SDS011;9548;56.920;14.804;2022-07-25T10:43:06;3.28;;;1.92;;
18838;SDS011;9548;56.920;14.804;2022-07-25T10:45:42;2.20;;;2.00;;
18838;SDS011;9548;56.920;14.804;2022-07-25T10:48:20;2.53;;;2.08;;
18838;SDS011;9548;56.920;14.804;2022-07-25T10:50:48;3.35;;;1.70;;
18838;SDS011;9548;56.920;14.804;2022-07-25T10:53:26;2.17;;;1.80;;
18838;SDS011;9548;56.920;14.804;2022-07-25T10:55:58;6.60;;;2.00;;
18838;SDS011;9548;56.920;14.804;2022-07-25T10:58:40;1.98;;;1.88;;
18838;SDS011;9548;56.920;14.804;2022-07-25T11:01:09;2.28;;;1.77;;
18838;SDS011;9548;56.920;14.804;2022-07-25T11:03:38;2.30;;;1.98;;
18838;SDS011;9548;56.920;14.804;2022-07-25T11:06:09;1.90;;;1.80;;
18838;SDS011;9548;56.920;14.804;2022-07-25T11:08:36;7.03;;;1.88;;
18838;SDS011;9548;56.920;14.804;2022-07-25T11:11:03;8.25;;;2.10;;
18838;SDS011;9548;56.920;14.804;2022-07-25T11:13:36;2.22;;;1.80;;
18838;SDS011;9548;56.920;14.804;2022-07-25T11:16:03;4.15;;;1.90;;
18838;SDS011;9548;56.920;14.804;2022-07-25T11:18:33;1.88;;;1.67;;
18838;SDS011;9548;56.920;14.804;2022-07-25T11:21:02;2.25;;;1.70;;
18838;SDS011;9548;56.920;14.804;2022-07-25T11:23:30;1.70;;;1.60;;
18838;SDS011;9548;56.920;14.804;2022-07-25T11:26:07;4.30;;;1.75;;
18838;SDS011;9548;56.920;14.804;2022-07-25T11:28:38;4.88;;;1.73;;
18838;SDS011;9548;56.920;14.804;2022-07-25T11:31:06;1.73;;;1.63;;
18838;SDS011;9548;56.920;14.804;2022-07-25T11:33:36;2.47;;;1.70;;
18838;SDS011;9548;56.920;14.804;2022-07-25T11:36:03;5.82;;;1.73;;
18838;SDS011;9548;56.920;14.804;2022-07-25T11:38:31;3.88;;;1.80;;
18838;SDS011;9548;56.920;14.804;2022-07-25T11:40:58;2.85;;;2.05;;
18838;SDS011;9548;56.920;14.804;2022-07-25T11:43:26;2.40;;;1.63;;
18838;SDS011;9548;56.920;14.804;2022-07-25T11:45:56;5.88;;;1.90;;
18838;SDS011;9548;56.920;14.804;2022-07-25T11:48:34;5.45;;;2.42;;
18838;SDS011;9548;56.920;14.804;2022-07-25T11:51:08;2.95;;;1.83;;
18838;SDS011;9548;56.920;14.804;2022-07-25T11:53:40;2.53;;;1.70;;
18838;SDS011;9548;56.920;14.804;2022-07-25T11:56:12;3.15;;;2.03;;
18838;SDS011;9548;56.920;14.804;2022-07-25T11:58:43;5.47;;;1.80;;
18838;SDS011;9548;56.920;14.804;2022-07-25T12:01:21;2.63;;;1.90;;
18838;SDS011;9548;56.920;14.804;2022-07-25T12:03:50;2.17;;;1.80;;
18838;SDS011;9548;56.920;14.804;2022-07-25T12:06:17;2.45;;;1.98;;
18838;SDS011;9548;56.920;14.804;2022-07-25T12:08:44;3.53;;;2.20;;
18838;SDS011;9548;56.920;14.804;2022-07-25T12:11:15;2.58;;;1.92;;
18838;SDS011;9548;56.920;14.804;2022-07-25T12:13:45;3.75;;;2.28;;
18838;SDS011;9548;56.920;14.804;2022-07-25T12:16:13;3.72;;;2.00;;
18838;SDS011;9548;56.920;14.804;2022-07-25T12:18:41;2.58;;;1.83;;
18838;SDS011;9548;56.920;14.804;2022-07-25T12:21:09;2.15;;;1.75;;
18838;SDS011;9548;56.920;14.804;2022-07-25T12:23:36;2.60;;;1.92;;
18838;SDS011;9548;56.920;14.804;2022-07-25T12:26:06;1.70;;;1.60;;
18838;SDS011;9548;56.920;14.804;2022-07-25T12:28:34;1.98;;;1.60;;
18838;SDS011;9548;56.920;14.804;2022-07-25T12:31:01;2.28;;;1.52;;
18838;SDS011;9548;56.920;14.804;2022-07-25T12:33:29;3.78;;;1.77;;
18838;SDS011;9548;56.920;14.804;2022-07-25T12:35:57;2.47;;;1.75;;
18838;SDS011;9548;56.920;14.804;2022-07-25T12:38:25;4.20;;;1.60;;
18838;SDS011;9548;56.920;14.804;2022-07-25T12:40:53;1.42;;;1.27;;
18838;SDS011;9548;56.920;14.804;2022-07-25T12:43:20;2.85;;;1.60;;
18838;SDS011;9548;56.920;14.804;2022-07-25T12:45:48;2.30;;;1.65;;
18838;SDS011;9548;56.920;14.804;2022-07-25T12:48:15;4.60;;;1.73;;
18838;SDS011;9548;56.920;14.804;2022-07-25T12:50:42;1.60;;;1.45;;
18838;SDS011;9548;56.920;14.804;2022-07-25T12:53:10;1.85;;;1.58;;
18838;SDS011;9548;56.920;14.804;2022-07-25T12:55:39;1.60;;;1.45;;
18838;SDS011;9548;56.920;14.804;2022-07-25T12:58:06;4.43;;;1.58;;
18838;SDS011;9548;56.920;14.804;2022-07-25T13:00:34;2.13;;;1.42;;
18838;SDS011;9548;56.920;14.804;2022-07-25T13:03:01;2.53;;;1.35;;
18838;SDS011;9548;56.920;14.804;2022-07-25T13:05:28;3.95;;;1.50;;
18838;SDS011;9548;56.920;14.804;2022-07-25T13:07:55;1.75;;;1.30;;
18838;SDS011;9548;56.920;14.804;2022-07-25T13:10:23;3.80;;;1.60;;
18838;SDS011;9548;56.920;14.804;2022-07-25T13:12:51;4.43;;;1.63;;
18838;SDS011;9548;56.920;14.804;2022-07-25T13:15:18;5.95;;;1.50;;
18838;SDS011;9548;56.920;14.804;2022-07-25T13:17:47;2.80;;;1.63;;
18838;SDS011;9548;56.920;14.804;2022-07-25T13:20:15;2.97;;;1.45;;
18838;SDS011;9548;56.920;14.804;2022-07-25T13:22:42;1.40;;;1.30;;
18838;SDS011;9548;56.920;14.804;2022-07-25T13:25:09;5.57;;;1.48;;
18838;SDS011;9548;56.920;14.804;2022-07-25T13:27:36;5.25;;;1.60;;
18838;SDS011;9548;56.920;14.804;2022-07-25T13:30:06;2.53;;;1.30;;
18838;SDS011;9548;56.920;14.804;2022-07-25T13:32:33;1.40;;;1.30;;
18838;SDS011;9548;56.920;14.804;2022-07-25T13:35:01;1.60;;;1.50;;
18838;SDS011;9548;56.920;14.804;2022-07-25T13:37:28;1.33;;;1.23;;
18838;SDS011;9548;56.920;14.804;2022-07-25T13:39:56;1.50;;;1.35;;
18838;SDS011;9548;56.920;14.804;2022-07-25T13:42:23;1.65;;;1.38;;
18838;SDS011;9548;56.920;14.804;2022-07-25T13:44:51;4.97;;;1.40;;
18838;SDS011;9548;56.920;14.804;2022-07-25T13:47:19;1.83;;;1.45;;
18838;SDS011;9548;56.920;14.804;2022-07-25T13:49:46;2.30;;;1.70;;
18838;SDS011;9548;56.920;14.804;2022-07-25T13:52:14;1.40;;;1.30;;
18838;SDS011;9548;56.920;14.804;2022-07-25T13:54:41;2.65;;;1.65;;
18838;SDS011;9548;56.920;14.804;2022-07-25T13:57:08;6.75;;;1.50;;
18838;SDS011;9548;56.920;14.804;2022-07-25T13:59:35;3.67;;;1.30;;
18838;SDS011;9548;56.920;14.804;2022-07-25T14:02:02;2.60;;;1.30;;
18838;SDS011;9548;56.920;14.804;2022-07-25T14:04:31;2.08;;;1.27;;
18838;SDS011;9548;56.920;14.804;2022-07-25T14:06:58;5.22;;;1.50;;
18838;SDS011;9548;56.920;14.804;2022-07-25T14:09:26;1.35;;;1.20;;
18838;SDS011;9548;56.920;14.804;2022-07-25T14:11:53;3.15;;;1.20;;
18838;SDS011;9548;56.920;14.804;2022-07-25T14:14:20;1.45;;;1.35;;
18838;SDS011;9548;56.920;14.804;2022-07-25T14:16:47;2.40;;;1.25;;
18838;SDS011;9548;56.920;14.804;2022-07-25T14:19:14;2.00;;;1.10;;
18838;SDS011;9548;56.920;14.804;2022-07-25T14:21:43;1.75;;;1.13;;
18838;SDS011;9548;56.920;14.804;2022-07-25T14:24:10;2.88;;;1.30;;
18838;SDS011;9548;56.920;14.804;2022-07-25T14:26:37;5.80;;;1.27;;
18838;SDS011;9548;56.920;14.804;2022-07-25T14:29:05;1.55;;;1.30;;
18838;SDS011;9548;56.920;14.804;2022-07-25T14:31:35;9.13;;;1.13;;
18838;SDS011;9548;56.920;14.804;2022-07-25T14:34:04;1.05;;;1.02;;
18838;SDS011;9548;56.920;14.804;2022-07-25T14:36:31;3.78;;;1.40;;
18838;SDS011;9548;56.920;14.804;2022-07-25T14:39:00;2.35;;;1.10;;
18838;SDS011;9548;56.920;14.804;2022-07-25T14:41:27;3.70;;;1.48;;
18838;SDS011;9548;56.920;14.804;2022-07-25T14:43:54;7.13;;;1.45;;
18838;SDS011;9548;56.920;14.804;2022-07-25T14:46:21;6.07;;;1.30;;
18838;SDS011;9548;56.920;14.804;2022-07-25T14:48:48;3.17;;;1.45;;
18838;SDS011;9548;56.920;14.804;2022-07-25T14:51:16;5.10;;;1.58;;
18838;SDS011;9548;56.920;14.804;2022-07-25T14:53:44;7.03;;;1.40;;